Hlavní strana
METAR-TAF:

METAR-TAF

Letiště :

Letecká základna

Tulln an der Donau, Rakousko

zeměpisná šířka: 48-19N, zeměpisná délka: 016-07E, výška: 175 m

METAR: chybějící

Čas: 19:53 (18:53 UTC)

Předpověď počasí

Zpráva byla vytvořena před 10 hodinami a 38 minutami, v 08:15 UTC
Předpověď platná od 18 v 09 UTC do 18 v 18 UTC
Západní vítr 12 kt
Viditelnost 10 km a více
Skoro jasno ve výšce 4000 ft
Oblačno až skoro zataženo ve výšce 10000 ft
Dočasný
od 18 v 09 UTC do 18 v 13 UTC
Západní vítr 15 kt s nárazy do 25 kt
Oblačno až skoro zataženo ve výšce 4000 ft
Pravděpodobnost 30% :
Dočasný
od 18 v 09 UTC do 18 v 13 UTC
Viditelnost: 5000 m
Oblačno až skoro zataženo ve výšce 1500 ft
slabé sněhové přeháňky

TAF: LOXT 180815Z 1809/1818 26012KT 9999 FEW040 BKN100 TEMPO 1809/1813 28015G25KT BKN040 PROB30 TEMPO 1809/1813 5000 -SHSN BKN015

Stav a předpovědi počasí z více než 4 000 letišť (zprávy METAR a TAF).

Červené a žluté tečky na mapě představují dostupné meteorologické stanice.

Když kurzor umístíte na tečku, zobrazí se název stanice.

Pak kliknutím zobrazíte stav a předpověď počasí.

Chcete-li změnit mapu, kliknutím na zelené tlačítko se znaménkem +mapu přiblížíte, kliknutím na zelené tlačítko se znaménkem – mapu oddálíte a kliknutím na zelené šipky přejdete na sousední mapy.


METAR-TAF: